LTFE Airport Information

Runway Information
Runway 11 Length 9842 ft width 148 ft
Elevation 9 ft Threshold 0 ft Heading 107
Runway 29 Length 9842 ft Width 148 ft
Elevation 21 ft Threshold 0 ft Heading 287
Airport Frequencies
Type APP Name MENDERES A Frequency 119.5 MHZ
Type APP Name MENDERES A Frequency 119.775 MHZ
Type ATIS Name ATIS Frequency 128.5 MHZ
Type GND Name GND Frequency 121.95 MHZ
Type TWR Name TWR Frequency 120.5 MHZ
Airport Navaids
Type VOR-DME Name Milas Bodrum Frequency 116700 KHZ
Type NDB Name Milas Bodrum Frequency 389 KHZ
Type VOR-DME Name Kiyikislacik Frequency 113900 KHZ
Airport Weather Information & NOTAM
ADDS - METARS form results

(2007 UTC 16 July 2018)
 
METAR text: LTFE 161950Z 14010KT CAVOK 28/15 Q1008 NOSIG RMK RWY10 18006KT
Conditions at: LTFE (BODRUM MILAS , TR) observed 1950 UTC 16 July 2018
Temperature: 28.0°C (82°F)
Dewpoint: 15.0°C (59°F) [RH = 45%]
Pressure (altimeter): 29.76 inches Hg (1008.0 mb)
Winds: from the SE (140 degrees) at 12 MPH (10 knots; 5.2 m/s)
Visibility: 6 or more miles (10+ km)
Ceiling: ceiling and visibility are OK
Clouds: unknown
Weather: no significant weather observed at this time

METAR text: LTFE 161920Z 13007KT CAVOK 28/14 Q1008 NOSIG RMK RWY10 16005KT
Conditions at: LTFE (BODRUM MILAS , TR) observed 1920 UTC 16 July 2018
Temperature: 28.0°C (82°F)
Dewpoint: 14.0°C (57°F) [RH = 42%]
Pressure (altimeter): 29.76 inches Hg (1008.0 mb)
Winds: from the SE (130 degrees) at 8 MPH (7 knots; 3.6 m/s)
Visibility: 6 or more miles (10+ km)
Ceiling: ceiling and visibility are OK
Clouds: unknown
Weather: no significant weather observed at this time